Time;durP1;ratioP1;P1;durP2;ratioP2;P2;SDS_P1;SDS_P2;PMS_P1;PMS_P2;Temp;Humidity;BMP_temperature;BMP_pressure;BME280_temperature;BME280_humidity;BME280_pressure;Samples;Min_cycle;Max_cycle;Signal;HPM_P1;HPM_P2
2022/02/20 00:01:53;;;;;;;2.30;0.90;;;3.70;99.90;;;;;;5038483;28;20222;-88
2022/02/20 00:04:19;;;;;;;4.40;1.23;;;3.70;99.90;;;;;;5038570;28;20629;-88
2022/02/20 00:06:45;;;;;;;4.70;0.90;;;3.80;99.90;;;;;;5038207;28;20246;-86
2022/02/20 00:09:11;;;;;;;3.27;1.17;;;3.80;99.90;;;;;;5038451;28;20625;-87
2022/02/20 00:11:37;;;;;;;2.57;1.03;;;3.90;99.90;;;;;;5056322;28;20188;-87
2022/02/20 00:14:03;;;;;;;2.03;1.10;;;3.90;99.90;;;;;;5038589;28;20657;-89
2022/02/20 00:16:28;;;;;;;2.80;1.13;;;3.90;99.90;;;;;;5038507;28;20178;-89
2022/02/20 00:18:54;;;;;;;4.70;1.00;;;3.80;99.90;;;;;;5038480;28;20348;-87
2022/02/20 00:21:20;;;;;;;4.33;1.10;;;3.90;99.90;;;;;;5038662;28;20177;-88
2022/02/20 00:23:46;;;;;;;3.37;1.10;;;3.90;99.90;;;;;;5038247;28;20268;-88
2022/02/20 00:26:11;;;;;;;2.50;1.10;;;3.90;99.90;;;;;;5023816;28;20719;-89
2022/02/20 00:28:39;;;;;;;7.80;1.37;;;3.80;99.90;;;;;;5018639;28;20297;-88
2022/02/20 00:31:05;;;;;;;3.00;1.40;;;3.80;99.90;;;;;;5018094;28;20170;-86
2022/02/20 00:33:30;;;;;;;4.43;1.20;;;3.90;99.90;;;;;;5018117;28;20642;-87
2022/02/20 00:35:56;;;;;;;4.70;1.60;;;3.80;99.90;;;;;;5018372;28;20260;-87
2022/02/20 00:38:22;;;;;;;4.10;1.47;;;3.80;99.90;;;;;;5017787;28;20674;-88
2022/02/20 00:40:48;;;;;;;4.53;1.73;;;3.70;99.90;;;;;;5017617;28;20250;-86
2022/02/20 00:43:15;;;;;;;6.07;1.70;;;3.70;99.90;;;;;;5017889;28;20282;-87
2022/02/20 00:45:40;;;;;;;4.30;1.60;;;3.70;99.90;;;;;;5017648;28;20198;-89
2022/02/20 00:48:06;;;;;;;3.70;1.47;;;3.70;99.90;;;;;;5017295;28;20233;-88
2022/02/20 00:50:32;;;;;;;3.83;1.40;;;3.70;99.90;;;;;;5017729;28;20221;-87
2022/02/20 00:52:59;;;;;;;3.50;1.33;;;3.70;99.90;;;;;;5017861;28;20257;-88
2022/02/20 00:55:25;;;;;;;2.63;1.43;;;3.70;99.90;;;;;;5017624;28;20218;-87
2022/02/20 00:57:52;;;;;;;3.10;1.43;;;3.60;99.90;;;;;;5017769;28;20194;-88
2022/02/20 01:00:19;;;;;;;2.77;1.20;;;3.70;99.90;;;;;;5018038;28;20171;-89
2022/02/20 01:02:45;;;;;;;2.10;1.10;;;3.60;99.90;;;;;;5017396;28;20763;-88
2022/02/20 01:05:11;;;;;;;1.77;1.10;;;3.70;99.90;;;;;;5017403;28;20178;-88
2022/02/20 01:07:38;;;;;;;4.17;1.00;;;3.70;99.90;;;;;;5017244;28;20290;-89
2022/02/20 01:10:07;;;;;;;1.70;0.80;;;3.70;99.90;;;;;;5017383;28;20179;-87
2022/02/20 01:12:33;;;;;;;1.63;0.90;;;3.70;99.90;;;;;;5015758;28;20187;-88
2022/02/20 01:14:58;;;;;;;2.93;0.87;;;3.70;99.90;;;;;;5016346;28;20178;-88
2022/02/20 01:17:24;;;;;;;2.43;0.80;;;3.70;99.90;;;;;;5034373;28;20256;-88
2022/02/20 01:19:53;;;;;;;1.33;0.63;;;3.70;99.90;;;;;;5016696;28;20243;-87
2022/02/20 01:22:20;;;;;;;1.83;0.73;;;3.70;99.90;;;;;;5016892;28;20221;-88
2022/02/20 01:24:46;;;;;;;2.47;0.80;;;3.60;99.90;;;;;;5019118;28;20170;-87
2022/02/20 01:27:11;;;;;;;2.30;0.80;;;3.60;99.90;;;;;;5036695;28;20200;-87
2022/02/20 01:29:38;;;;;;;2.93;0.90;;;3.60;99.90;;;;;;5036871;28;20180;-87
2022/02/20 01:32:05;;;;;;;1.10;0.80;;;3.50;99.90;;;;;;5036544;28;20186;-87
2022/02/20 01:34:31;;;;;;;3.10;0.90;;;3.50;99.90;;;;;;5036387;28;20696;-86
2022/02/20 01:36:56;;;;;;;1.27;0.90;;;3.50;99.90;;;;;;5036242;28;20221;-86
2022/02/20 01:39:22;;;;;;;1.37;0.80;;;3.50;99.90;;;;;;5036200;28;20556;-87
2022/02/20 01:41:53;;;;;;;2.90;0.90;;;3.40;99.90;;;;;;5036641;28;20194;-87
2022/02/20 01:44:19;;;;;;;1.37;0.70;;;3.50;99.90;;;;;;5036536;28;20170;-87
2022/02/20 01:46:46;;;;;;;2.13;0.80;;;3.50;99.90;;;;;;5053808;28;20161;-87
2022/02/20 01:49:17;;;;;;;1.10;0.80;;;3.40;99.90;;;;;;5036332;28;20626;-88
2022/02/20 01:51:43;;;;;;;1.03;0.70;;;3.50;99.90;;;;;;5036451;28;20173;-87
2022/02/20 01:54:09;;;;;;;1.27;0.80;;;3.50;99.90;;;;;;5035820;28;20197;-87
2022/02/20 01:56:35;;;;;;;1.97;0.80;;;3.50;99.90;;;;;;5036175;28;20178;-88
2022/02/20 01:59:03;;;;;;;3.03;0.80;;;3.50;99.90;;;;;;5036195;28;20190;-86
2022/02/20 02:01:28;;;;;;;3.13;0.90;;;3.50;99.90;;;;;;5036142;28;20200;-87
2022/02/20 02:03:54;;;;;;;1.63;1.00;;;3.50;99.90;;;;;;5035923;28;20205;-88
2022/02/20 02:06:20;;;;;;;2.43;0.93;;;3.50;99.90;;;;;;5035771;28;20685;-87
2022/02/20 02:08:46;;;;;;;1.60;0.80;;;3.60;99.90;;;;;;5035967;28;20267;-88
2022/02/20 02:11:12;;;;;;;2.67;0.80;;;3.60;99.90;;;;;;5035836;28;20626;-87
2022/02/20 02:13:39;;;;;;;1.57;0.73;;;3.70;99.90;;;;;;5036225;28;20181;-87
2022/02/20 02:16:05;;;;;;;2.77;0.80;;;3.70;99.90;;;;;;5036122;28;20261;-87
2022/02/20 02:18:31;;;;;;;2.57;1.07;;;3.70;99.90;;;;;;5035481;28;20209;-87
2022/02/20 02:20:57;;;;;;;1.47;0.73;;;3.70;99.90;;;;;;5035679;28;20173;-88
2022/02/20 02:23:22;;;;;;;3.30;0.83;;;3.70;99.90;;;;;;5035624;28;20672;-88
2022/02/20 02:25:50;;;;;;;1.63;0.90;;;3.70;99.90;;;;;;5023522;28;20653;-88
2022/02/20 02:28:16;;;;;;;0.67;0.67;;;3.70;99.90;;;;;;5015451;28;20198;-89
2022/02/20 02:30:42;;;;;;;1.53;0.90;;;3.70;99.90;;;;;;5015602;28;20547;-88
2022/02/20 02:33:08;;;;;;;1.37;0.80;;;3.80;99.90;;;;;;5015457;28;20178;-87
2022/02/20 02:35:34;;;;;;;3.70;0.70;;;3.80;99.90;;;;;;5033289;28;20166;-87
2022/02/20 02:37:59;;;;;;;0.60;0.60;;;3.80;99.90;;;;;;5015648;28;20295;-87
2022/02/20 02:40:25;;;;;;;1.20;0.70;;;3.80;99.90;;;;;;5015762;28;20171;-87
2022/02/20 02:42:51;;;;;;;0.80;0.70;;;3.90;99.90;;;;;;5015539;28;20173;-88
2022/02/20 02:45:17;;;;;;;1.87;0.80;;;3.90;99.90;;;;;;5015142;28;20194;-87
2022/02/20 02:47:46;;;;;;;2.07;0.80;;;3.90;99.90;;;;;;5015382;28;20194;-87
2022/02/20 02:50:13;;;;;;;1.63;0.90;;;3.90;99.90;;;;;;5015724;28;20181;-87
2022/02/20 02:52:39;;;;;;;0.80;0.80;;;3.90;99.90;;;;;;5015588;28;20170;-87
2022/02/20 02:55:05;;;;;;;1.10;1.00;;;4.00;99.90;;;;;;5015295;28;20601;-88
2022/02/20 02:57:31;;;;;;;2.23;0.90;;;4.00;99.90;;;;;;5015441;28;20285;-87
2022/02/20 02:59:58;;;;;;;1.50;1.00;;;4.00;99.90;;;;;;5031936;28;20198;-88
2022/02/20 03:02:25;;;;;;;1.70;1.20;;;4.00;99.90;;;;;;5007129;28;20235;-88
2022/02/20 03:04:50;;;;;;;5.53;1.30;;;4.00;99.90;;;;;;5012983;28;20210;-87
2022/02/20 03:07:16;;;;;;;1.90;1.50;;;4.10;99.90;;;;;;5011941;28;20215;-87
2022/02/20 03:09:42;;;;;;;3.33;1.70;;;4.00;99.90;;;;;;5012017;28;20241;-88
2022/02/20 03:12:08;;;;;;;3.03;1.90;;;4.10;99.90;;;;;;5011992;28;20197;-86
2022/02/20 03:14:35;;;;;;;2.30;2.03;;;4.10;99.90;;;;;;5011747;28;20654;-87
2022/02/20 03:17:01;;;;;;;2.67;2.20;;;4.10;99.90;;;;;;4995464;28;20256;-87
2022/02/20 03:19:27;;;;;;;4.87;2.17;;;4.20;99.90;;;;;;4995549;28;20289;-87
2022/02/20 03:21:54;;;;;;;3.03;2.30;;;4.20;99.90;;;;;;5011787;28;20735;-88
2022/02/20 03:24:19;;;;;;;3.27;2.90;;;4.30;99.90;;;;;;5011708;28;20639;-85
2022/02/20 03:26:45;;;;;;;4.87;3.50;;;4.30;99.90;;;;;;5011693;28;20283;-88
2022/02/20 03:29:11;;;;;;;4.67;3.77;;;4.40;99.90;;;;;;5011957;28;20176;-87
2022/02/20 03:31:37;;;;;;;5.87;4.10;;;4.40;99.90;;;;;;5011788;28;20181;-86
2022/02/20 03:34:02;;;;;;;5.60;4.40;;;4.40;99.90;;;;;;5011708;28;20218;-87
2022/02/20 03:36:31;;;;;;;6.83;4.97;;;4.40;99.90;;;;;;5011602;28;20535;-87
2022/02/20 03:38:57;;;;;;;5.57;4.97;;;4.40;99.90;;;;;;5011435;28;20231;-88
2022/02/20 03:41:23;;;;;;;9.47;5.13;;;4.40;99.90;;;;;;4995518;28;20207;-87
2022/02/20 03:43:48;;;;;;;6.57;5.17;;;4.50;99.90;;;;;;5012904;28;20187;-88
2022/02/20 03:46:14;;;;;;;5.03;4.50;;;4.60;99.90;;;;;;5012838;28;20170;-87
2022/02/20 03:48:40;;;;;;;5.97;5.03;;;4.60;99.90;;;;;;5011622;28;20199;-88
2022/02/20 03:51:05;;;;;;;5.57;4.83;;;4.70;99.90;;;;;;5011640;28;20540;-88
2022/02/20 03:53:31;;;;;;;9.93;5.13;;;4.80;99.90;;;;;;5011480;28;20259;-88
2022/02/20 03:55:57;;;;;;;5.60;5.10;;;4.80;99.90;;;;;;5011359;28;20525;-88
2022/02/20 03:58:23;;;;;;;5.67;5.10;;;4.80;99.90;;;;;;4995033;28;20203;-89
2022/02/20 04:00:48;;;;;;;6.00;5.03;;;4.80;99.90;;;;;;5012466;28;20163;-89
2022/02/20 04:03:14;;;;;;;6.53;5.80;;;4.80;99.90;;;;;;5009747;28;20710;-88
2022/02/20 04:05:40;;;;;;;6.27;5.60;;;4.80;99.90;;;;;;5014920;28;20175;-86
2022/02/20 04:08:06;;;;;;;7.57;5.57;;;5.00;99.90;;;;;;5014485;28;20206;-88
2022/02/20 04:10:33;;;;;;;7.70;5.43;;;5.00;99.90;;;;;;5015057;28;20177;-87
2022/02/20 04:12:58;;;;;;;6.87;4.97;;;5.00;99.90;;;;;;5035951;28;20626;-86
2022/02/20 04:15:24;;;;;;;6.63;5.03;;;5.00;99.90;;;;;;5018198;28;20174;-88
2022/02/20 04:17:50;;;;;;;6.23;5.00;;;5.00;99.90;;;;;;5018317;28;20289;-87
2022/02/20 04:20:18;;;;;;;6.67;5.30;;;5.00;99.90;;;;;;5017900;28;20214;-87
2022/02/20 04:22:45;;;;;;;5.97;5.37;;;5.00;99.90;;;;;;5018217;28;20635;-87
2022/02/20 04:25:12;;;;;;;6.20;5.30;;;5.00;99.90;;;;;;5018281;28;20269;-86
2022/02/20 04:27:39;;;;;;;7.80;5.90;;;5.00;99.90;;;;;;5018065;28;20287;-88
2022/02/20 04:30:07;;;;;;;6.30;5.63;;;5.00;99.90;;;;;;5035551;28;20658;-87
2022/02/20 04:32:34;;;;;;;6.33;5.53;;;5.00;99.90;;;;;;5001452;28;20187;-86
2022/02/20 04:35:01;;;;;;;6.87;5.80;;;5.00;99.90;;;;;;5017615;28;20170;-87
2022/02/20 04:37:27;;;;;;;8.20;6.10;;;4.90;99.90;;;;;;5017658;28;20210;-86
2022/02/20 04:39:53;;;;;;;7.63;6.13;;;4.90;99.90;;;;;;5035637;28;20187;-88
2022/02/20 04:42:19;;;;;;;7.10;6.23;;;4.90;99.90;;;;;;5035562;28;20151;-87
2022/02/20 04:44:44;;;;;;;7.87;6.57;;;4.90;99.90;;;;;;5017996;28;20163;-88
2022/02/20 04:47:10;;;;;;;7.50;6.70;;;4.90;99.90;;;;;;5017377;28;20194;-88
2022/02/20 04:49:36;;;;;;;8.03;6.60;;;4.90;99.90;;;;;;5017620;28;20175;-87
2022/02/20 04:52:03;;;;;;;6.53;5.80;;;4.90;99.90;;;;;;5017439;28;20189;-88
2022/02/20 04:54:29;;;;;;;7.30;6.30;;;4.90;99.90;;;;;;5017357;28;20178;-85
2022/02/20 04:56:55;;;;;;;6.27;5.67;;;4.90;99.90;;;;;;5017567;28;20206;-86
2022/02/20 04:59:21;;;;;;;6.70;6.00;;;4.90;99.90;;;;;;5017312;28;20202;-87
2022/02/20 05:01:47;;;;;;;6.93;5.73;;;4.80;99.90;;;;;;5017409;28;20253;-86
2022/02/20 05:04:13;;;;;;;6.77;5.80;;;4.80;99.90;;;;;;5017488;28;20170;-86
2022/02/20 05:06:39;;;;;;;6.17;5.57;;;4.70;99.90;;;;;;5017412;28;20167;-87
2022/02/20 05:09:05;;;;;;;6.13;5.47;;;4.70;99.90;;;;;;5017387;28;20184;-88
2022/02/20 05:11:31;;;;;;;6.13;5.53;;;4.70;99.90;;;;;;5034987;28;20170;-88
2022/02/20 05:13:59;;;;;;;7.10;6.40;;;4.70;99.90;;;;;;5017404;28;20186;-88
2022/02/20 05:16:26;;;;;;;6.70;6.03;;;4.70;99.90;;;;;;5017229;28;20174;-87
2022/02/20 05:18:51;;;;;;;7.17;5.93;;;4.70;99.90;;;;;;5016945;28;20226;-86
2022/02/20 05:21:18;;;;;;;6.80;5.97;;;4.80;99.90;;;;;;5017202;28;20166;-86
2022/02/20 05:23:44;;;;;;;6.77;6.13;;;4.60;99.90;;;;;;5016213;28;20535;-87
2022/02/20 05:26:11;;;;;;;10.17;5.63;;;4.60;99.90;;;;;;5016684;28;20171;-88
2022/02/20 05:28:37;;;;;;;6.67;5.97;;;4.60;99.90;;;;;;5017363;28;20198;-88
2022/02/20 05:31:03;;;;;;;7.67;6.30;;;4.50;99.90;;;;;;5017058;28;20181;-86
2022/02/20 05:33:28;;;;;;;7.50;5.83;;;4.50;99.90;;;;;;5017118;28;20205;-88
2022/02/20 05:35:54;;;;;;;6.80;5.80;;;4.40;99.90;;;;;;5017012;28;20261;-86
2022/02/20 05:38:20;;;;;;;6.90;6.03;;;4.40;99.90;;;;;;5016459;28;20206;-87
2022/02/20 05:40:45;;;;;;;6.43;5.80;;;4.40;99.90;;;;;;5016658;28;20179;-87
2022/02/20 05:43:11;;;;;;;6.70;6.00;;;4.40;99.90;;;;;;5016787;28;20181;-89
2022/02/20 05:45:37;;;;;;;8.20;6.00;;;4.40;99.90;;;;;;5016930;28;20622;-88
2022/02/20 05:48:03;;;;;;;6.20;5.60;;;4.30;99.90;;;;;;5016670;28;20688;-88
2022/02/20 05:50:30;;;;;;;6.67;5.63;;;4.30;99.90;;;;;;5016448;28;20201;-88
2022/02/20 05:52:56;;;;;;;6.40;5.57;;;4.30;99.90;;;;;;5016596;28;20170;-87
2022/02/20 05:55:24;;;;;;;7.13;6.00;;;4.20;99.90;;;;;;5016499;28;20178;-86
2022/02/20 05:57:51;;;;;;;6.50;5.10;;;4.20;99.90;;;;;;5016453;28;20198;-87
2022/02/20 06:00:25;;;;;;;6.03;5.10;;;4.10;99.90;;;;;;5016611;28;20285;-89
2022/02/20 06:02:51;;;;;;;6.30;5.70;;;4.10;99.90;;;;;;5016110;28;20316;-87
2022/02/20 06:05:17;;;;;;;6.90;5.70;;;4.00;99.90;;;;;;5016434;28;20309;-88
2022/02/20 06:07:43;;;;;;;7.10;6.13;;;4.00;99.90;;;;;;5016241;28;20191;-89
2022/02/20 06:10:10;;;;;;;7.60;6.00;;;4.00;99.90;;;;;;5016336;28;20175;-86
2022/02/20 06:12:36;;;;;;;7.40;6.33;;;4.00;99.90;;;;;;5016401;28;20339;-90
2022/02/20 06:15:03;;;;;;;7.03;6.30;;;3.90;99.90;;;;;;5016123;28;20178;-88
2022/02/20 06:17:29;;;;;;;6.83;6.20;;;3.90;99.90;;;;;;5016061;28;20562;-89
2022/02/20 06:19:55;;;;;;;7.43;6.03;;;3.90;99.90;;;;;;5016058;28;20203;-88
2022/02/20 06:22:21;;;;;;;7.47;6.30;;;4.00;99.90;;;;;;5015985;28;20652;-89
2022/02/20 06:24:47;;;;;;;6.70;6.00;;;4.00;99.90;;;;;;5016486;28;20194;-87
2022/02/20 06:27:12;;;;;;;7.67;6.60;;;4.10;99.90;;;;;;5015721;28;20198;-88
2022/02/20 06:29:38;;;;;;;8.53;6.30;;;4.10;99.90;;;;;;5016236;28;20221;-90
2022/02/20 06:32:05;;;;;;;6.60;5.90;;;4.10;99.90;;;;;;5016513;28;20166;-90
2022/02/20 06:34:31;;;;;;;8.47;7.07;;;4.10;99.90;;;;;;5036245;28;20174;-88
2022/02/20 06:36:56;;;;;;;9.67;7.13;;;4.10;99.90;;;;;;5016102;28;20202;-88
2022/02/20 06:39:22;;;;;;;7.03;6.33;;;4.10;99.90;;;;;;5016082;28;20245;-89
2022/02/20 06:41:48;;;;;;;8.07;6.97;;;4.20;99.90;;;;;;5015851;28;20635;-88
2022/02/20 06:44:14;;;;;;;8.80;7.00;;;4.20;99.90;;;;;;5016162;28;20178;-88
2022/02/20 06:46:41;;;;;;;8.10;6.70;;;4.10;99.90;;;;;;5033512;28;20161;-87
2022/02/20 06:49:07;;;;;;;7.30;6.40;;;4.10;99.90;;;;;;5033728;28;20158;-88
2022/02/20 06:51:34;;;;;;;7.80;7.00;;;4.20;99.90;;;;;;5016205;28;20167;-87
2022/02/20 06:54:00;;;;;;;8.13;7.13;;;4.20;99.90;;;;;;5016126;28;20558;-89
2022/02/20 06:56:25;;;;;;;8.33;7.03;;;4.20;99.90;;;;;;5015872;28;20197;-89
2022/02/20 06:58:51;;;;;;;7.90;7.00;;;4.20;99.90;;;;;;5015644;28;20301;-90
2022/02/20 07:01:17;;;;;;;8.77;7.00;;;4.20;99.90;;;;;;5015648;28;20178;-89
2022/02/20 07:03:43;;;;;;;8.07;6.40;;;4.20;99.90;;;;;;5015945;28;20226;-87
2022/02/20 07:06:09;;;;;;;8.90;6.77;;;4.20;99.90;;;;;;5016466;28;20233;-87
2022/02/20 07:08:36;;;;;;;7.43;6.73;;;4.30;99.90;;;;;;5016061;28;20202;-87
2022/02/20 07:11:02;;;;;;;8.00;6.83;;;4.30;99.90;;;;;;5016207;28;20170;-89
2022/02/20 07:13:27;;;;;;;9.60;7.50;;;4.20;99.90;;;;;;5016077;28;20178;-90
2022/02/20 07:15:53;;;;;;;9.30;7.40;;;4.30;99.90;;;;;;5016215;28;20182;-90
2022/02/20 07:18:19;;;;;;;8.07;6.53;;;4.30;99.90;;;;;;5020377;28;20202;-89
2022/02/20 07:20:45;;;;;;;8.87;7.20;;;4.30;99.90;;;;;;5022144;28;20167;-88
2022/02/20 07:23:12;;;;;;;9.57;7.40;;;4.20;99.90;;;;;;5021441;28;20174;-89
2022/02/20 07:25:37;;;;;;;9.20;6.73;;;4.30;99.90;;;;;;5020610;28;20189;-88
2022/02/20 07:28:04;;;;;;;7.47;6.57;;;4.20;99.90;;;;;;5016783;28;20202;-88
2022/02/20 07:30:32;;;;;;;9.40;7.50;;;4.20;99.90;;;;;;5015709;28;20189;-89
2022/02/20 07:33:04;;;;;;;8.97;7.37;;;4.20;99.90;;;;;;5015455;28;20178;-89
2022/02/20 07:35:34;;;;;;;8.27;7.30;;;4.20;99.90;;;;;;5016383;28;20166;-87
2022/02/20 07:38:01;;;;;;;10.43;7.53;;;4.20;99.90;;;;;;5021087;28;20209;-86
2022/02/20 07:40:27;;;;;;;8.80;7.63;;;4.20;99.90;;;;;;5020405;28;20199;-86
2022/02/20 07:42:54;;;;;;;8.67;6.90;;;4.30;99.90;;;;;;5016152;28;20166;-89
2022/02/20 07:45:23;;;;;;;9.20;7.10;;;4.30;99.90;;;;;;5015318;28;20205;-87
2022/02/20 07:48:00;;;;;;;11.73;7.90;;;4.20;99.90;;;;;;5018808;28;20277;-89
2022/02/20 07:50:29;;;;;;;8.93;7.53;;;4.30;99.90;;;;;;5018832;28;20177;-89
2022/02/20 07:52:57;;;;;;;8.30;7.20;;;4.30;99.90;;;;;;5019243;28;20203;-88
2022/02/20 07:55:23;;;;;;;9.07;6.97;;;4.20;99.90;;;;;;5019014;28;20170;-88
2022/02/20 07:57:49;;;;;;;8.27;7.37;;;4.20;99.90;;;;;;5018756;28;20206;-89
2022/02/20 08:00:18;;;;;;;7.90;7.00;;;4.20;99.90;;;;;;5018793;28;20203;-89
2022/02/20 08:02:47;;;;;;;9.00;7.17;;;4.30;99.90;;;;;;5018853;28;20218;-88
2022/02/20 08:05:13;;;;;;;11.90;7.20;;;4.30;99.90;;;;;;5019075;28;20170;-88
2022/02/20 08:07:39;;;;;;;8.83;6.37;;;4.40;99.90;;;;;;5019005;28;20225;-89
2022/02/20 08:10:06;;;;;;;7.93;5.50;;;4.40;99.90;;;;;;5019043;28;20209;-88
2022/02/20 08:12:32;;;;;;;6.60;4.50;;;4.50;99.90;;;;;;5019141;28;20166;-87
2022/02/20 08:14:58;;;;;;;6.70;4.10;;;4.60;99.90;;;;;;5018914;28;20170;-88
2022/02/20 08:17:24;;;;;;;7.43;3.63;;;4.60;99.90;;;;;;5019008;28;20198;-88
2022/02/20 08:19:50;;;;;;;6.40;3.07;;;4.60;99.90;;;;;;5018844;28;20773;-89
2022/02/20 08:22:17;;;;;;;4.40;2.97;;;4.60;99.90;;;;;;5018925;28;20174;-90
2022/02/20 08:24:44;;;;;;;4.30;2.53;;;4.70;99.90;;;;;;5018503;28;20220;-88
2022/02/20 08:27:14;;;;;;;5.37;3.00;;;4.70;99.90;;;;;;5018482;28;20206;-88
2022/02/20 08:29:40;;;;;;;3.93;2.80;;;4.70;99.90;;;;;;5018690;28;20200;-89
2022/02/20 08:32:07;;;;;;;5.53;2.60;;;4.70;99.90;;;;;;5018707;28;20181;-89
2022/02/20 08:34:34;;;;;;;3.43;2.30;;;4.70;99.90;;;;;;5018456;28;20205;-88
2022/02/20 08:37:02;;;;;;;4.37;2.80;;;4.80;99.90;;;;;;5018273;28;20252;-89
2022/02/20 08:39:28;;;;;;;3.67;2.50;;;4.80;99.90;;;;;;5018645;28;20190;-87
2022/02/20 08:41:57;;;;;;;9.70;3.10;;;4.70;99.90;;;;;;5018487;28;20638;-90
2022/02/20 08:44:23;;;;;;;6.50;2.70;;;4.80;99.90;;;;;;5018729;28;20167;-87
2022/02/20 08:46:49;;;;;;;6.23;2.87;;;4.80;99.90;;;;;;5018253;28;20895;-88
2022/02/20 08:49:15;;;;;;;5.60;3.20;;;4.70;99.90;;;;;;5018088;28;20178;-88
2022/02/20 08:51:42;;;;;;;8.10;3.20;;;4.80;99.90;;;;;;5018696;28;20229;-86
2022/02/20 08:54:08;;;;;;;8.57;3.67;;;4.80;99.90;;;;;;5018407;28;20209;-89
2022/02/20 08:56:35;;;;;;;6.33;3.07;;;4.80;99.90;;;;;;5018120;28;20167;-90
2022/02/20 08:59:01;;;;;;;4.77;3.37;;;4.80;99.90;;;;;;5017245;28;20205;-88
2022/02/20 09:01:28;;;;;;;4.43;3.27;;;4.80;99.90;;;;;;5018072;28;20167;-90
2022/02/20 09:04:02;;;;;;;8.23;4.30;;;4.80;99.90;;;;;;5017932;28;20167;-88
2022/02/20 09:06:29;;;;;;;7.80;4.23;;;4.80;99.90;;;;;;5018125;28;20673;-89
2022/02/20 09:08:55;;;;;;;6.13;3.83;;;4.80;99.90;;;;;;5018083;28;20173;-88
2022/02/20 09:11:21;;;;;;;8.83;4.50;;;4.90;99.90;;;;;;5018114;28;20173;-88
2022/02/20 09:13:47;;;;;;;6.83;3.77;;;4.80;99.90;;;;;;5035792;28;20627;-89
2022/02/20 09:16:13;;;;;;;7.10;4.00;;;4.80;99.90;;;;;;5017931;28;20166;-90
2022/02/20 09:18:39;;;;;;;8.90;4.77;;;4.80;99.90;;;;;;5017266;28;20217;-88
2022/02/20 09:21:06;;;;;;;9.67;4.57;;;4.80;99.90;;;;;;5017500;28;20167;-90
2022/02/20 09:23:33;;;;;;;6.77;4.53;;;4.70;99.90;;;;;;5017569;28;20197;-85
2022/02/20 09:25:58;;;;;;;6.17;4.70;;;4.70;99.90;;;;;;5017719;28;20193;-88
2022/02/20 09:28:24;;;;;;;7.40;4.67;;;4.60;99.90;;;;;;5017295;28;20194;-86
2022/02/20 09:30:50;;;;;;;7.87;4.47;;;4.60;99.90;;;;;;5017203;28;20220;-88
2022/02/20 09:33:16;;;;;;;8.20;4.83;;;4.60;99.90;;;;;;5017341;28;20171;-87
2022/02/20 09:35:43;;;;;;;8.33;4.47;;;4.60;99.90;;;;;;5017117;28;20211;-89
2022/02/20 09:38:09;;;;;;;10.87;4.40;;;4.60;99.90;;;;;;5016542;28;20222;-91
2022/02/20 09:40:35;;;;;;;7.97;5.00;;;4.60;99.90;;;;;;5017005;28;20224;-91
2022/02/20 09:43:02;;;;;;;9.83;5.17;;;4.60;99.90;;;;;;5016731;28;20163;-90
2022/02/20 09:45:28;;;;;;;9.17;4.53;;;4.60;99.90;;;;;;5016991;28;20197;-91
2022/02/20 09:47:54;;;;;;;6.47;4.37;;;4.60;99.90;;;;;;5017089;28;20241;-91
2022/02/20 09:50:19;;;;;;;9.47;4.73;;;4.60;99.90;;;;;;5017216;28;20163;-91
2022/02/20 09:52:45;;;;;;;6.97;4.67;;;4.60;99.90;;;;;;5016800;28;20166;-90
2022/02/20 09:55:11;;;;;;;7.03;4.73;;;4.70;99.90;;;;;;5017217;28;20181;-91
2022/02/20 09:57:37;;;;;;;8.20;4.90;;;4.60;99.90;;;;;;5016660;28;20202;-91
2022/02/20 10:00:05;;;;;;;7.30;4.57;;;4.70;99.90;;;;;;5015912;28;20209;-92
2022/02/20 10:02:36;;;;;;;9.47;4.53;;;4.70;99.90;;;;;;5015796;28;20225;-88
2022/02/20 10:05:04;;;;;;;8.93;4.47;;;4.70;99.90;;;;;;5015940;28;20197;-91
2022/02/20 10:07:32;;;;;;;6.90;4.50;;;4.80;99.90;;;;;;5015879;28;20195;-89
2022/02/20 10:10:03;;;;;;;11.03;4.23;;;4.80;99.90;;;;;;5015231;28;20285;-89
2022/02/20 10:12:30;;;;;;;9.23;4.27;;;4.70;99.90;;;;;;5015624;28;20182;-89
2022/02/20 10:14:56;;;;;;;13.83;4.70;;;4.80;99.90;;;;;;5015843;28;20564;-88
2022/02/20 10:17:27;;;;;;;9.83;4.57;;;4.80;99.90;;;;;;5015642;28;20198;-90
2022/02/20 10:19:56;;;;;;;8.63;4.97;;;4.90;99.90;;;;;;5015962;28;20234;-91
2022/02/20 10:22:33;;;;;;;9.33;5.57;;;4.80;99.90;;;;;;5016190;28;20182;-89
2022/02/20 10:25:04;;;;;;;12.23;5.53;;;4.90;99.90;;;;;;5033407;28;20150;-88
2022/02/20 10:27:30;;;;;;;12.27;5.40;;;4.90;99.90;;;;;;5015784;28;20208;-89
2022/02/20 10:30:09;;;;;;;12.57;5.20;;;4.90;99.90;;;;;;5016088;28;20178;-90
2022/02/20 10:32:35;;;;;;;9.43;5.37;;;5.00;99.90;;;;;;5015652;28;20182;-90
2022/02/20 10:35:13;;;;;;;9.47;4.97;;;5.00;99.90;;;;;;5015296;28;20174;-89
2022/02/20 10:37:39;;;;;;;8.30;4.73;;;5.00;99.90;;;;;;5015642;28;20286;-89
2022/02/20 10:40:25;;;;;;;11.47;4.90;;;5.10;99.90;;;;;;5015922;28;20209;-89
2022/02/20 10:42:59;;;;;;;12.07;4.40;;;5.10;99.90;;;;;;5015836;28;20198;-91
2022/02/20 10:45:33;;;;;;;10.83;4.93;;;5.20;99.90;;;;;;5015512;28;20167;-94
2022/02/20 10:48:00;;;;;;;6.97;3.83;;;5.20;99.90;;;;;;5015384;28;20198;-88
2022/02/20 10:50:31;;;;;;;12.20;4.80;;;5.20;99.90;;;;;;5032827;28;20217;-89
2022/02/20 10:53:11;;;;;;;10.27;3.70;;;5.20;99.90;;;;;;5015637;28;20266;-90
2022/02/20 10:55:41;;;;;;;9.80;3.80;;;5.30;99.90;;;;;;5015120;28;20206;-88
2022/02/20 10:58:35;;;;;;;8.03;3.67;;;5.30;99.90;;;;;;5015369;28;20749;-90
2022/02/20 11:01:04;;;;;;;9.07;3.03;;;5.40;99.90;;;;;;5015474;28;20186;-90
2022/02/20 11:03:33;;;;;;;8.53;3.30;;;5.40;99.90;;;;;;5032731;28;20686;-89
2022/02/20 11:06:00;;;;;;;8.00;3.03;;;5.40;99.90;;;;;;5014999;28;20539;-89
2022/02/20 11:08:28;;;;;;;4.83;2.83;;;5.50;99.90;;;;;;5014822;28;20226;-91
2022/02/20 11:10:55;;;;;;;11.83;3.43;;;5.50;99.90;;;;;;5014919;28;20175;-91
2022/02/20 11:13:21;;;;;;;8.07;3.37;;;5.50;99.90;;;;;;5015116;28;20174;-90
2022/02/20 11:15:51;;;;;;;8.67;3.50;;;5.50;99.90;;;;;;5014592;28;20237;-88
2022/02/20 11:18:21;;;;;;;9.10;3.40;;;5.60;99.90;;;;;;5015122;28;20301;-88
2022/02/20 11:20:53;;;;;;;6.97;2.83;;;5.60;99.90;;;;;;5016529;28;20163;-90
2022/02/20 11:23:25;;;;;;;8.93;3.00;;;5.70;99.90;;;;;;5019077;28;20175;-89
2022/02/20 11:25:52;;;;;;;9.27;3.00;;;5.70;99.90;;;;;;5019247;28;20229;-90
2022/02/20 11:28:18;;;;;;;6.97;2.60;;;5.80;99.90;;;;;;5019523;28;20685;-89
2022/02/20 11:30:44;;;;;;;9.80;2.90;;;5.80;99.90;;;;;;5035830;28;20167;-89
2022/02/20 11:33:11;;;;;;;8.13;2.70;;;5.80;99.90;;;;;;5019455;28;20171;-90
2022/02/20 11:35:43;;;;;;;7.67;2.50;;;5.80;99.90;;;;;;5019171;28;20216;-89
2022/02/20 11:38:15;;;;;;;7.47;2.33;;;5.90;99.90;;;;;;5018739;28;20205;-88
2022/02/20 11:40:57;;;;;;;8.07;2.63;;;6.00;99.90;;;;;;5018412;28;20627;-89
2022/02/20 11:43:46;;;;;;;5.43;2.73;;;6.00;99.90;;;;;;5035681;28;20171;-89
2022/02/20 11:46:26;;;;;;;7.47;2.27;;;6.00;99.90;;;;;;5018171;28;20177;-90
2022/02/20 11:49:15;;;;;;;6.03;2.70;;;6.10;99.90;;;;;;5034291;28;20202;-89
2022/02/20 11:51:56;;;;;;;5.60;2.30;;;6.10;99.90;;;;;;5018070;28;20162;-88
2022/02/20 11:54:23;;;;;;;8.73;2.53;;;6.20;99.90;;;;;;5017922;28;20159;-89
2022/02/20 11:57:18;;;;;;;5.63;2.70;;;6.20;99.90;;;;;;5034230;28;20190;-88
2022/02/20 12:00:07;;;;;;;3.63;2.00;;;6.30;99.90;;;;;;5035862;28;20669;-89
2022/02/20 12:02:33;;;;;;;7.10;2.70;;;6.30;99.90;;;;;;5017478;28;20214;-89
2022/02/20 12:05:00;;;;;;;3.63;2.13;;;6.30;99.90;;;;;;5017576;28;20167;-89
2022/02/20 12:07:46;;;;;;;6.57;2.23;;;6.30;99.90;;;;;;5017973;28;20767;-89
2022/02/20 12:10:23;;;;;;;5.57;1.97;;;6.40;99.90;;;;;;5017904;28;20638;-89
2022/02/20 12:12:56;;;;;;;4.43;1.93;;;6.40;99.90;;;;;;5010153;28;20174;-90
2022/02/20 12:15:31;;;;;;;5.67;2.00;;;6.40;99.90;;;;;;5035448;28;20198;-90
2022/02/20 12:18:15;;;;;;;3.63;1.37;;;6.50;99.90;;;;;;5017837;28;20300;-89
2022/02/20 12:20:56;;;;;;;6.00;1.70;;;6.50;99.90;;;;;;5017787;28;20206;-88
2022/02/20 12:23:27;;;;;;;2.97;1.37;;;6.50;99.90;;;;;;5017846;28;20626;-89
2022/02/20 12:25:54;;;;;;;5.83;1.47;;;6.60;99.90;;;;;;5017578;28;20190;-89
2022/02/20 12:28:46;;;;;;;3.03;1.40;;;6.50;99.90;;;;;;5017805;28;20214;-88
2022/02/20 12:31:14;;;;;;;4.97;1.70;;;6.60;99.90;;;;;;5013290;28;20301;-89
2022/02/20 12:33:45;;;;;;;5.70;1.60;;;6.50;99.90;;;;;;5017006;28;20190;-89
2022/02/20 12:36:12;;;;;;;5.00;1.40;;;6.60;99.90;;;;;;5017420;28;20646;-89
2022/02/20 12:38:53;;;;;;;2.87;1.10;;;6.60;99.90;;;;;;5017006;28;20246;-90
2022/02/20 12:41:19;;;;;;;5.37;2.13;;;6.70;99.90;;;;;;5017131;28;20182;-88
2022/02/20 12:43:50;;;;;;;5.90;1.20;;;6.70;99.90;;;;;;5016934;28;20236;-88
2022/02/20 12:46:16;;;;;;;5.53;1.20;;;6.70;99.90;;;;;;5017001;28;20178;-90
2022/02/20 12:48:42;;;;;;;1.60;0.87;;;6.80;99.90;;;;;;5017014;28;20685;-90
2022/02/20 12:51:09;;;;;;;3.30;1.10;;;6.80;99.90;;;;;;5017403;28;20193;-90
2022/02/20 12:53:35;;;;;;;2.60;1.10;;;6.90;99.90;;;;;;5017075;28;20328;-89
2022/02/20 12:56:03;;;;;;;2.33;1.00;;;6.90;99.90;;;;;;5047463;28;20653;-90
2022/02/20 12:58:29;;;;;;;1.20;1.10;;;7.00;99.90;;;;;;5058883;28;20198;-87